createdAt,value
2023-03-31T00:45:01.211Z,10.4
2023-03-31T01:05:05.434Z,10.3
2023-03-31T01:15:07.758Z,10.3
2023-03-31T01:25:10.241Z,10.4
2023-03-31T01:35:12.907Z,10.3
2023-03-31T01:45:15.099Z,10.3
2023-03-31T01:55:17.622Z,10
2023-03-31T02:05:19.789Z,9.8
2023-03-31T02:15:21.603Z,9.5
2023-03-31T02:25:23.258Z,9.6
2023-03-31T02:35:25.727Z,9.5
2023-03-31T02:55:29.483Z,9.4
2023-03-31T03:05:32.128Z,9.5
2023-03-31T03:15:34.573Z,9.5
2023-03-31T03:25:37.098Z,9.6
2023-03-31T03:35:38.826Z,9.7
2023-03-31T03:45:40.533Z,9.6
2023-03-31T03:55:42.333Z,9.6
2023-03-31T04:05:44.885Z,9.5
2023-03-31T04:15:46.893Z,9.5
2023-03-31T04:25:48.797Z,9.5
2023-03-31T04:35:51.153Z,9.4
2023-03-31T04:45:53.594Z,9.4
2023-03-31T04:55:55.927Z,9.5
2023-03-31T05:05:58.490Z,9.5
2023-03-31T05:16:00.865Z,9.5
2023-03-31T05:26:02.745Z,9.7
2023-03-31T05:36:05.385Z,9.5
2023-03-31T05:46:07.398Z,9.5
2023-03-31T05:56:08.995Z,9.5
2023-03-31T06:06:10.829Z,9.5
2023-03-31T06:16:13.074Z,9.7
2023-03-31T06:26:14.983Z,9.8
2023-03-31T06:36:16.865Z,9.9
2023-03-31T06:46:19.203Z,9.8
2023-03-31T06:56:21.097Z,9.6
2023-03-31T07:06:23.336Z,9.6
2023-03-31T07:16:25.980Z,9.5
2023-03-31T07:26:27.874Z,9.4
2023-03-31T07:36:30.482Z,9.3
2023-03-31T07:46:32.758Z,9.3
2023-03-31T07:56:34.622Z,9.1
2023-03-31T08:16:38.413Z,9.2
2023-03-31T08:26:40.580Z,9.2
2023-03-31T08:36:43.060Z,9.1
2023-03-31T08:46:45.437Z,9.2
2023-03-31T08:56:47.227Z,9.4
2023-03-31T09:06:49.864Z,9.6
2023-03-31T09:16:52.397Z,9.6
2023-03-31T09:36:56.051Z,9.7
2023-03-31T09:46:57.852Z,9.8
2023-03-31T09:57:00.180Z,9.8
2023-03-31T10:07:02.043Z,9.8
2023-03-31T10:17:04.614Z,10.1
2023-03-31T10:27:06.981Z,10.3
2023-03-31T10:37:09.495Z,10.7
2023-03-31T10:47:11.357Z,11.1
2023-03-31T10:57:13.170Z,10.8
2023-03-31T11:07:15.823Z,9.6
2023-03-31T11:17:17.618Z,10.1
2023-03-31T11:27:19.931Z,10.6
2023-03-31T11:37:21.995Z,11
2023-03-31T11:47:24.562Z,10.6
2023-03-31T11:57:26.675Z,10.9
2023-03-31T12:07:28.892Z,11.4
2023-03-31T12:27:32.509Z,12.1
2023-03-31T12:37:34.303Z,12.1
2023-03-31T12:47:36.896Z,12.2
2023-03-31T13:07:40.561Z,12.1
2023-03-31T13:17:42.578Z,11.9
2023-03-31T13:27:44.710Z,12.4
2023-03-31T13:37:46.990Z,12.7
2023-03-31T13:47:48.887Z,12.7
2023-03-31T13:57:51.452Z,12.3
2023-03-31T14:07:53.448Z,12.5
2023-03-31T14:17:55.921Z,12.7
2023-03-31T14:27:58.159Z,12.8
2023-03-31T14:38:00.381Z,12.8
2023-03-31T14:48:02.484Z,13.2
2023-03-31T14:58:04.797Z,13
2023-03-31T15:08:07.445Z,12.9
2023-03-31T15:18:11.213Z,12.3
2023-03-31T15:28:10.887Z,10.3
2023-03-31T15:38:12.883Z,10.4
2023-03-31T15:48:15.398Z,10.5
2023-03-31T15:58:17.929Z,10.7
2023-03-31T16:08:19.708Z,11.3
2023-03-31T16:18:21.968Z,11.2
2023-03-31T16:28:23.905Z,11.1
2023-03-31T16:38:26.324Z,10.9
2023-03-31T16:48:28.166Z,11.1
2023-03-31T16:58:30.659Z,11.1
2023-03-31T17:08:33.223Z,10.7
2023-03-31T17:18:34.893Z,10.3
2023-03-31T17:28:37.518Z,10.3
2023-03-31T17:38:40.193Z,10.3
2023-03-31T17:48:42.470Z,10.2
2023-03-31T17:58:44.535Z,9.9
2023-03-31T18:08:47.137Z,9.8
2023-03-31T18:18:48.815Z,9.8
2023-03-31T18:28:50.757Z,9.8
2023-03-31T18:38:53.417Z,9.6
2023-03-31T18:48:55.773Z,9.5
2023-03-31T18:58:58.112Z,9.5
2023-03-31T19:08:59.908Z,9.6
2023-03-31T19:19:02.388Z,9.7
2023-03-31T19:29:05.007Z,9.7
2023-03-31T19:39:06.757Z,9.8
2023-03-31T19:49:09.217Z,9.7
2023-03-31T19:59:10.968Z,9.8
2023-03-31T20:09:13.402Z,9.6
2023-03-31T20:19:15.405Z,9.3
2023-03-31T20:29:17.867Z,9.3
2023-03-31T20:39:20.328Z,9.1
2023-03-31T20:49:22.243Z,8.9
2023-03-31T20:59:24.263Z,8.9
2023-03-31T21:09:26.354Z,8.8
2023-03-31T21:19:28.964Z,8.8
2023-03-31T21:29:31.550Z,8.9
2023-03-31T21:39:33.388Z,8.9
2023-03-31T21:49:36.026Z,8.9
2023-03-31T21:59:38.650Z,8.9
2023-03-31T22:09:40.894Z,9
2023-03-31T22:19:43.151Z,9.1
2023-03-31T22:29:45.691Z,9.2
2023-03-31T22:39:54.926Z,9.3
2023-03-31T22:49:57.394Z,9.2
2023-03-31T22:59:59.954Z,9.1
2023-03-31T23:40:08.502Z,8.8
